createdAt,value
2023-03-21T00:04:14.379Z,35.70
2023-03-21T00:06:42.585Z,33.90
2023-03-21T00:09:10.308Z,33.70
2023-03-21T00:11:38.348Z,32.40
2023-03-21T00:14:08.677Z,35.80
2023-03-21T00:16:40.575Z,32.30
2023-03-21T00:19:09.861Z,35.20
2023-03-21T00:21:49.167Z,33.60
2023-03-21T00:24:26.435Z,34.30
2023-03-21T00:26:54.154Z,33.80
2023-03-21T00:29:21.885Z,34.00
2023-03-21T00:31:49.595Z,33.70
2023-03-21T00:34:22.622Z,33.60
2023-03-21T00:37:01.771Z,36.30
2023-03-21T00:39:29.834Z,36.60
2023-03-21T00:41:57.825Z,35.40
2023-03-21T00:44:25.989Z,37.40
2023-03-21T00:47:06.159Z,36.40
2023-03-21T00:49:34.920Z,34.80
2023-03-21T00:52:18.326Z,36.50
2023-03-21T00:54:50.485Z,37.10
2023-03-21T00:57:22.076Z,35.50
2023-03-21T00:59:52.164Z,41.20
2023-03-21T01:02:22.915Z,37.10
2023-03-21T01:04:51.282Z,37.70
2023-03-21T01:07:18.987Z,37.00
2023-03-21T01:09:46.859Z,38.30
2023-03-21T01:12:14.585Z,36.60
2023-03-21T01:14:42.771Z,36.40
2023-03-21T01:17:10.954Z,39.90
2023-03-21T01:19:51.052Z,41.50
2023-03-21T01:22:19.918Z,40.00
2023-03-21T01:24:54.227Z,35.90
2023-03-21T01:27:27.038Z,38.60
2023-03-21T01:29:54.847Z,39.10
2023-03-21T01:32:22.507Z,39.50
2023-03-21T01:34:50.470Z,36.90
2023-03-21T01:37:20.048Z,39.00
2023-03-21T01:39:47.842Z,38.70
2023-03-21T01:42:15.671Z,37.30
2023-03-21T01:44:54.384Z,40.30
2023-03-21T01:47:22.245Z,40.00
2023-03-21T01:49:51.558Z,39.00
2023-03-21T01:52:36.642Z,39.60
2023-03-21T01:55:07.345Z,41.60
2023-03-21T01:57:49.274Z,37.90
2023-03-21T02:00:25.089Z,40.90
2023-03-21T02:02:58.314Z,38.70
2023-03-21T02:05:37.425Z,39.70
2023-03-21T02:08:05.395Z,41.20
2023-03-21T02:10:33.232Z,44.30
2023-03-21T02:13:09.418Z,38.60
2023-03-21T02:15:38.440Z,38.40
2023-03-21T02:18:18.722Z,37.80
2023-03-21T02:20:58.440Z,41.80
2023-03-21T02:23:44.986Z,39.90
2023-03-21T02:26:41.130Z,41.60
2023-03-21T02:29:21.980Z,39.90
2023-03-21T02:31:49.911Z,38.40
2023-03-21T02:34:37.300Z,38.40
2023-03-21T02:37:07.402Z,44.30
2023-03-21T02:39:47.900Z,41.60
2023-03-21T02:42:28.272Z,42.10
2023-03-21T02:44:59.079Z,40.50
2023-03-21T02:47:29.853Z,43.70
2023-03-21T02:50:18.926Z,40.90
2023-03-21T02:52:48.260Z,44.30
2023-03-21T02:55:26.658Z,39.80
2023-03-21T02:57:56.381Z,41.60
2023-03-21T03:00:29.829Z,38.70
2023-03-21T03:03:08.800Z,40.20
2023-03-21T03:05:43.962Z,39.00
2023-03-21T03:08:11.645Z,38.10
2023-03-21T03:10:49.016Z,41.60
2023-03-21T03:13:17.058Z,39.20
2023-03-21T03:16:00.371Z,41.60
2023-03-21T03:18:32.135Z,40.70
2023-03-21T03:21:03.774Z,37.80
2023-03-21T03:23:34.216Z,40.40
2023-03-21T03:26:08.661Z,41.10
2023-03-21T03:28:41.374Z,37.30
2023-03-21T03:31:12.824Z,39.00
2023-03-21T03:33:43.520Z,34.80
2023-03-21T03:36:30.578Z,38.00
2023-03-21T03:39:01.057Z,38.00
2023-03-21T03:41:30.148Z,38.10
2023-03-21T03:44:01.860Z,39.20
2023-03-21T03:46:33.429Z,36.40
2023-03-21T03:49:05.058Z,41.90
2023-03-21T03:51:36.510Z,38.40
2023-03-21T03:54:07.089Z,39.50
2023-03-21T03:56:34.902Z,35.60
2023-03-21T03:59:04.540Z,39.20
2023-03-21T04:01:32.329Z,41.70
2023-03-21T04:04:12.360Z,38.80
2023-03-21T04:06:41.533Z,39.10
2023-03-21T04:09:19.204Z,40.40
2023-03-21T04:11:49.107Z,36.00
2023-03-21T04:14:17.200Z,38.80
2023-03-21T04:16:44.911Z,36.40
2023-03-21T04:19:12.809Z,40.80
2023-03-21T04:21:41.266Z,38.10
2023-03-21T04:24:09.013Z,40.20
2023-03-21T04:26:37.147Z,46.50
2023-03-21T04:29:05.380Z,43.00
2023-03-21T04:31:34.556Z,47.70
2023-03-21T04:34:04.008Z,43.70
2023-03-21T04:36:38.753Z,53.60
2023-03-21T04:39:12.495Z,215.60
2023-03-21T04:41:40.923Z,148.20
2023-03-21T04:44:09.217Z,94.00
2023-03-21T04:46:37.570Z,50.40
2023-03-21T04:49:07.013Z,44.30
2023-03-21T04:51:35.237Z,40.00
2023-03-21T04:54:03.250Z,34.30
2023-03-21T04:56:32.711Z,34.30
2023-03-21T04:59:02.071Z,32.40
2023-03-21T05:01:31.082Z,32.10
2023-03-21T05:04:00.025Z,32.20
2023-03-21T05:06:28.144Z,32.10
2023-03-21T05:09:00.138Z,31.80
2023-03-21T05:11:28.595Z,28.80
2023-03-21T05:13:56.383Z,29.30
2023-03-21T05:16:27.108Z,31.70
2023-03-21T05:18:55.635Z,26.70
2023-03-21T05:21:23.850Z,30.10
2023-03-21T05:23:54.340Z,31.30
2023-03-21T05:26:23.187Z,31.20
2023-03-21T05:28:51.507Z,32.70
2023-03-21T05:31:19.357Z,35.10
2023-03-21T05:33:48.254Z,35.70
2023-03-21T05:36:15.991Z,37.50
2023-03-21T05:38:46.191Z,43.60
2023-03-21T05:41:14.725Z,43.90
2023-03-21T05:43:42.456Z,39.40
2023-03-21T05:46:10.635Z,37.80
2023-03-21T05:48:39.283Z,36.40
2023-03-21T05:51:07.300Z,39.60
2023-03-21T05:53:35.506Z,35.50
2023-03-21T05:56:03.560Z,36.70
2023-03-21T05:58:31.235Z,38.30
2023-03-21T06:00:59.348Z,40.00
2023-03-21T06:03:27.647Z,40.10
2023-03-21T06:05:55.604Z,40.00
2023-03-21T06:08:23.330Z,37.60
2023-03-21T06:10:50.977Z,39.60
2023-03-21T06:13:18.878Z,38.50
2023-03-21T06:15:46.657Z,38.60
2023-03-21T06:18:14.385Z,39.40
2023-03-21T06:20:42.585Z,38.50
2023-03-21T06:23:10.350Z,37.70
2023-03-21T06:25:38.230Z,42.00
2023-03-21T06:28:06.432Z,39.70
2023-03-21T06:30:34.202Z,45.00
2023-03-21T06:33:02.863Z,43.00
2023-03-21T06:35:30.644Z,40.20
2023-03-21T06:37:59.263Z,50.90
2023-03-21T06:40:27.215Z,42.00
2023-03-21T06:42:54.858Z,42.70
2023-03-21T06:45:22.593Z,37.80
2023-03-21T06:47:50.368Z,38.60
2023-03-21T06:50:19.121Z,49.60
2023-03-21T06:52:46.904Z,44.20
2023-03-21T06:55:14.571Z,46.30
2023-03-21T06:57:42.293Z,40.90
2023-03-21T07:00:10.472Z,38.20
2023-03-21T07:02:38.887Z,39.00
2023-03-21T07:05:07.165Z,38.50
2023-03-21T07:07:34.894Z,39.70
2023-03-21T07:10:03.005Z,40.90
2023-03-21T07:12:34.098Z,41.90
2023-03-21T07:15:02.171Z,39.50
2023-03-21T07:17:30.372Z,37.10
2023-03-21T07:19:58.407Z,38.20
2023-03-21T07:22:26.730Z,37.20
2023-03-21T07:25:04.429Z,34.20
2023-03-21T07:27:33.415Z,33.20
2023-03-21T07:30:01.716Z,36.10
2023-03-21T07:32:34.019Z,40.10
2023-03-21T07:35:01.959Z,41.20
2023-03-21T07:37:29.962Z,31.50
2023-03-21T07:39:57.820Z,30.00
2023-03-21T07:42:25.781Z,32.20
2023-03-21T07:44:55.199Z,31.00
2023-03-21T07:47:23.743Z,30.80
2023-03-21T07:49:51.551Z,30.40
2023-03-21T07:52:19.260Z,29.20
2023-03-21T07:54:46.984Z,31.90
2023-03-21T07:57:14.735Z,29.30
2023-03-21T07:59:42.459Z,26.80
2023-03-21T08:02:13.630Z,26.80
2023-03-21T08:04:42.246Z,31.80
2023-03-21T08:07:11.216Z,26.80
2023-03-21T08:09:39.290Z,26.70
2023-03-21T08:12:08.469Z,28.60
2023-03-21T08:14:36.907Z,28.10
2023-03-21T08:17:05.401Z,27.10
2023-03-21T08:19:33.208Z,22.30
2023-03-21T08:22:01.434Z,19.30
2023-03-21T08:24:30.176Z,20.80
2023-03-21T08:26:57.964Z,20.20
2023-03-21T08:29:25.813Z,21.30
2023-03-21T08:31:53.613Z,23.20
2023-03-21T08:34:23.184Z,25.00
2023-03-21T08:36:50.892Z,23.40
2023-03-21T08:39:18.700Z,23.10
2023-03-21T08:41:46.727Z,27.20
2023-03-21T08:44:17.109Z,25.80
2023-03-21T08:46:44.956Z,29.00
2023-03-21T08:49:13.192Z,25.80
2023-03-21T08:51:41.825Z,25.10
2023-03-21T08:54:17.473Z,23.00
2023-03-21T08:56:45.500Z,20.80
2023-03-21T08:59:13.781Z,19.50
2023-03-21T09:01:42.150Z,18.70
2023-03-21T09:04:11.173Z,23.40
2023-03-21T09:06:41.068Z,20.00
2023-03-21T09:09:09.527Z,21.00
2023-03-21T09:11:37.434Z,17.90
2023-03-21T09:14:05.774Z,29.70
2023-03-21T09:16:33.647Z,20.70
2023-03-21T09:19:03.395Z,25.90
2023-03-21T09:21:31.499Z,23.40
2023-03-21T09:24:00.817Z,22.70
2023-03-21T09:26:29.206Z,22.20
2023-03-21T09:28:58.923Z,19.90
2023-03-21T09:31:30.458Z,18.50
2023-03-21T09:33:58.397Z,20.40
2023-03-21T09:36:27.300Z,19.40
2023-03-21T09:38:56.980Z,19.30
2023-03-21T09:41:30.078Z,19.30
2023-03-21T09:44:10.812Z,19.50
2023-03-21T09:46:38.639Z,21.30
2023-03-21T09:49:10.011Z,20.70
2023-03-21T09:51:41.420Z,28.20
2023-03-21T09:54:33.510Z,23.10
2023-03-21T09:57:09.900Z,25.70
2023-03-21T09:59:40.362Z,27.40
2023-03-21T10:02:36.835Z,21.90
2023-03-21T10:05:19.980Z,26.30
2023-03-21T10:08:00.632Z,27.30
2023-03-21T10:10:30.246Z,25.20
2023-03-21T10:12:58.128Z,23.80
2023-03-21T10:15:27.083Z,27.20
2023-03-21T10:17:57.210Z,25.10
2023-03-21T10:20:31.299Z,26.00
2023-03-21T10:23:01.167Z,22.30
2023-03-21T10:25:46.806Z,22.40
2023-03-21T10:28:50.033Z,30.70
2023-03-21T10:31:21.632Z,21.70
2023-03-21T10:33:50.201Z,24.90
2023-03-21T10:36:20.655Z,21.50
2023-03-21T10:39:08.204Z,25.10
2023-03-21T10:41:36.568Z,22.40
2023-03-21T10:44:13.394Z,23.80
2023-03-21T10:47:01.469Z,23.30
2023-03-21T10:49:40.230Z,21.20
2023-03-21T10:52:11.250Z,24.60
2023-03-21T10:54:38.993Z,22.50
2023-03-21T10:57:07.926Z,25.60
2023-03-21T10:59:38.929Z,24.10
2023-03-21T11:02:07.041Z,22.00
2023-03-21T11:04:37.013Z,20.90
2023-03-21T11:07:09.325Z,22.20
2023-03-21T11:10:03.460Z,24.30
2023-03-21T11:12:38.750Z,24.70
2023-03-21T11:15:28.146Z,25.00
2023-03-21T11:17:56.006Z,26.20
2023-03-21T11:20:23.880Z,23.70
2023-03-21T11:22:54.517Z,26.10
2023-03-21T11:25:35.343Z,28.90
2023-03-21T11:28:09.153Z,28.10
2023-03-21T11:30:37.025Z,28.50
2023-03-21T11:33:06.891Z,26.90
2023-03-21T11:35:38.877Z,26.00
2023-03-21T11:38:23.534Z,29.20
2023-03-21T11:40:57.310Z,27.40
2023-03-21T11:43:27.409Z,28.80
2023-03-21T11:46:05.371Z,28.10
2023-03-21T11:48:37.297Z,31.10
2023-03-21T11:51:25.870Z,27.70
2023-03-21T11:54:04.659Z,28.70
2023-03-21T11:56:33.922Z,29.50
2023-03-21T11:59:01.938Z,27.30
2023-03-21T12:01:49.996Z,27.00
2023-03-21T12:04:39.692Z,28.80
2023-03-21T12:07:19.990Z,28.50
2023-03-21T12:10:06.705Z,27.90
2023-03-21T12:12:54.910Z,30.30
2023-03-21T12:15:29.748Z,29.10
2023-03-21T12:18:09.943Z,28.70
2023-03-21T12:20:56.499Z,30.40
2023-03-21T12:26:12.419Z,28.90
2023-03-21T12:28:56.869Z,28.80
2023-03-21T12:31:33.791Z,28.00
2023-03-21T12:34:11.934Z,28.10
2023-03-21T12:37:00.045Z,25.60
2023-03-21T12:39:44.949Z,30.60
2023-03-21T12:42:41.212Z,29.20
2023-03-21T12:45:24.724Z,28.20
2023-03-21T12:47:56.331Z,28.40
2023-03-21T12:50:36.870Z,29.30
2023-03-21T12:53:21.874Z,28.80
2023-03-21T12:55:50.526Z,34.40
2023-03-21T12:58:19.828Z,28.30
2023-03-21T13:00:50.104Z,31.90
2023-03-21T13:03:27.739Z,30.30
2023-03-21T13:06:03.822Z,28.90
2023-03-21T13:08:39.679Z,27.00
2023-03-21T13:11:08.404Z,26.10
2023-03-21T13:13:52.039Z,29.80
2023-03-21T13:16:27.655Z,30.90
2023-03-21T13:19:14.190Z,28.80
2023-03-21T13:21:42.219Z,27.00
2023-03-21T13:24:22.323Z,30.60
2023-03-21T13:26:52.930Z,31.90
2023-03-21T13:29:24.385Z,28.40
2023-03-21T13:31:56.684Z,34.80
2023-03-21T13:34:26.941Z,32.60
2023-03-21T13:36:56.470Z,28.20
2023-03-21T13:39:26.875Z,29.10
2023-03-21T13:41:57.112Z,31.40
2023-03-21T13:44:33.032Z,30.00
2023-03-21T13:47:05.519Z,30.60
2023-03-21T13:49:37.758Z,27.30
2023-03-21T13:52:12.295Z,29.60
2023-03-21T13:54:53.821Z,28.60
2023-03-21T13:57:30.625Z,30.20
2023-03-21T14:00:35.295Z,30.30
2023-03-21T14:03:08.196Z,27.60
2023-03-21T14:05:37.893Z,28.40
2023-03-21T14:08:21.613Z,26.00
2023-03-21T14:10:56.931Z,26.60
2023-03-21T14:13:25.856Z,28.70
2023-03-21T14:15:56.823Z,28.10
2023-03-21T14:18:47.858Z,25.70
2023-03-21T14:21:24.782Z,27.40
2023-03-21T14:26:20.895Z,29.20
2023-03-21T14:28:49.965Z,21.50
2023-03-21T14:31:18.898Z,22.30
2023-03-21T14:33:49.597Z,20.40
2023-03-21T14:36:20.061Z,23.40
2023-03-21T14:38:56.227Z,22.10
2023-03-21T14:41:26.034Z,22.50
2023-03-21T14:44:16.365Z,22.20
2023-03-21T14:46:45.178Z,21.90
2023-03-21T14:49:21.156Z,23.00
2023-03-21T14:51:50.856Z,25.50
2023-03-21T14:54:19.420Z,23.40
2023-03-21T14:56:51.054Z,23.60
2023-03-21T14:59:21.790Z,27.10
2023-03-21T15:01:51.395Z,25.90
2023-03-21T15:04:19.652Z,26.90
2023-03-21T15:06:55.469Z,31.20
2023-03-21T15:09:27.078Z,25.60
2023-03-21T15:11:56.329Z,25.00
2023-03-21T15:14:32.822Z,27.90
2023-03-21T15:17:04.698Z,25.30
2023-03-21T15:19:34.953Z,25.80
2023-03-21T15:22:06.648Z,24.70
2023-03-21T15:24:40.738Z,23.40
2023-03-21T15:27:17.620Z,23.00
2023-03-21T15:29:45.956Z,26.00
2023-03-21T15:32:17.501Z,26.80
2023-03-21T15:34:46.435Z,24.50
2023-03-21T15:37:23.231Z,26.90
2023-03-21T15:39:52.717Z,25.00
2023-03-21T15:42:26.734Z,26.90
2023-03-21T15:45:01.597Z,28.70
2023-03-21T15:47:37.220Z,29.90
2023-03-21T15:50:17.404Z,28.90
2023-03-21T15:52:48.831Z,30.80
2023-03-21T15:55:18.121Z,33.90
2023-03-21T15:57:50.224Z,32.30
2023-03-21T16:00:21.119Z,26.60
2023-03-21T16:02:53.556Z,27.20
2023-03-21T16:05:26.588Z,28.40
2023-03-21T16:07:58.411Z,42.00
2023-03-21T16:10:34.121Z,37.80
2023-03-21T16:13:03.599Z,32.20
2023-03-21T16:15:31.811Z,29.30
2023-03-21T16:18:01.243Z,27.70
2023-03-21T16:20:32.999Z,31.50
2023-03-21T16:23:01.955Z,30.30
2023-03-21T16:25:30.963Z,26.50
2023-03-21T16:27:59.269Z,28.90
2023-03-21T16:30:27.675Z,30.70
2023-03-21T16:32:56.349Z,34.40
2023-03-21T16:35:26.227Z,42.60
2023-03-21T16:37:54.163Z,48.00
2023-03-21T16:40:26.458Z,37.30
2023-03-21T16:42:54.632Z,38.40
2023-03-21T16:45:23.252Z,29.80
2023-03-21T16:47:52.056Z,27.60
2023-03-21T16:50:24.441Z,26.80
2023-03-21T16:52:53.473Z,28.20
2023-03-21T16:55:21.775Z,28.10
2023-03-21T16:57:52.373Z,27.30
2023-03-21T17:00:23.640Z,26.10
2023-03-21T17:02:53.641Z,27.00
2023-03-21T17:05:23.166Z,26.10
2023-03-21T17:07:51.250Z,25.80
2023-03-21T17:10:21.580Z,24.30
2023-03-21T17:12:49.701Z,25.80
2023-03-21T17:15:17.962Z,25.90
2023-03-21T17:17:46.657Z,24.40
2023-03-21T17:20:25.386Z,25.00
2023-03-21T17:22:53.237Z,27.50
2023-03-21T17:25:21.596Z,25.60
2023-03-21T17:27:53.168Z,25.20
2023-03-21T17:30:28.752Z,26.60
2023-03-21T17:32:56.990Z,25.40
2023-03-21T17:35:25.682Z,26.60
2023-03-21T17:37:58.490Z,26.40
2023-03-21T17:40:31.077Z,29.30
2023-03-21T17:42:59.701Z,25.50
2023-03-21T17:45:28.292Z,27.00
2023-03-21T17:47:56.578Z,25.90
2023-03-21T17:50:26.053Z,28.70
2023-03-21T17:52:57.513Z,25.30
2023-03-21T17:55:26.407Z,29.50
2023-03-21T17:57:55.405Z,28.80
2023-03-21T18:00:26.587Z,25.70
2023-03-21T18:02:54.787Z,25.30
2023-03-21T18:05:22.998Z,23.10
2023-03-21T18:10:41.326Z,27.80
2023-03-21T18:13:09.838Z,27.50
2023-03-21T18:15:38.466Z,26.00
2023-03-21T18:18:07.557Z,26.00
2023-03-21T18:20:51.070Z,24.40
2023-03-21T18:23:21.378Z,25.60
2023-03-21T18:25:49.660Z,29.00
2023-03-21T18:28:20.782Z,28.20
2023-03-21T18:31:08.277Z,31.50
2023-03-21T18:33:40.362Z,35.20
2023-03-21T18:36:09.683Z,29.90
2023-03-21T18:38:37.667Z,25.30
2023-03-21T18:41:07.836Z,27.10
2023-03-21T18:44:01.492Z,23.90
2023-03-21T18:46:25.451Z,23.40
2023-03-21T18:48:53.698Z,26.20
2023-03-21T18:51:22.854Z,28.00
2023-03-21T18:53:51.184Z,27.40
2023-03-21T18:57:13.267Z,24.40
2023-03-21T18:59:11.837Z,25.20
2023-03-21T19:01:40.049Z,26.80
2023-03-21T19:04:21.454Z,25.20
2023-03-21T19:06:53.517Z,28.00
2023-03-21T19:09:29.570Z,23.20
2023-03-21T19:12:03.385Z,25.20
2023-03-21T19:14:31.763Z,25.90
2023-03-21T19:17:55.894Z,30.80
2023-03-21T19:19:47.899Z,36.60
2023-03-21T19:22:16.763Z,37.60
2023-03-21T19:24:45.003Z,41.90
2023-03-21T19:27:13.514Z,41.80
2023-03-21T19:29:41.661Z,41.20
2023-03-21T19:32:09.677Z,43.60
2023-03-21T19:34:37.741Z,41.70
2023-03-21T19:37:05.907Z,43.80
2023-03-21T19:39:35.253Z,45.40
2023-03-21T19:48:41.800Z,46.80
2023-03-21T19:51:26.739Z,48.40
2023-03-21T19:53:55.422Z,47.50
2023-03-21T19:56:26.271Z,49.30
2023-03-21T19:58:54.796Z,48.50
2023-03-21T20:01:22.474Z,45.20
2023-03-21T20:03:49.067Z,43.50
2023-03-21T20:06:16.102Z,44.50
2023-03-21T20:09:13.713Z,43.60
2023-03-21T20:11:28.960Z,46.10
2023-03-21T20:13:55.946Z,46.10
2023-03-21T20:16:22.878Z,42.50
2023-03-21T20:18:49.421Z,43.10
2023-03-21T20:21:18.298Z,44.00
2023-03-21T20:23:50.267Z,47.40
2023-03-21T20:28:56.502Z,43.30
2023-03-21T20:31:30.750Z,43.50
2023-03-21T20:33:58.648Z,47.10
2023-03-21T20:36:40.207Z,45.60
2023-03-21T20:39:07.303Z,52.10
2023-03-21T20:41:33.846Z,50.70
2023-03-21T20:44:41.749Z,49.40
2023-03-21T20:46:47.484Z,48.60
2023-03-21T20:49:14.914Z,52.50
2023-03-21T20:54:28.930Z,44.20
2023-03-21T20:56:56.374Z,45.90
2023-03-21T21:01:56.569Z,47.20
2023-03-21T21:04:41.293Z,53.30
2023-03-21T21:07:16.526Z,50.00
2023-03-21T21:09:43.482Z,51.70
2023-03-21T21:12:11.150Z,50.60
2023-03-21T21:14:40.188Z,53.80
2023-03-21T21:17:24.482Z,55.20
2023-03-21T21:19:53.910Z,53.40
2023-03-21T21:22:20.402Z,60.20
2023-03-21T21:24:47.896Z,59.40
2023-03-21T21:27:15.022Z,85.90
2023-03-21T21:29:42.976Z,67.80
2023-03-21T21:32:11.663Z,60.00
2023-03-21T21:34:39.015Z,60.10
2023-03-21T21:37:05.648Z,59.90
2023-03-21T21:39:34.522Z,57.20
2023-03-21T21:42:01.625Z,54.50
2023-03-21T21:44:28.123Z,59.70
2023-03-21T21:46:56.848Z,54.50
2023-03-21T21:49:23.512Z,52.90
2023-03-21T21:51:50.080Z,59.10
2023-03-21T21:54:17.537Z,58.60
2023-03-21T21:59:17.897Z,62.50
2023-03-21T22:01:47.905Z,60.40
2023-03-21T22:04:14.991Z,59.50
2023-03-21T22:06:42.636Z,61.50
2023-03-21T22:11:36.127Z,61.40
2023-03-21T22:14:03.370Z,65.00
2023-03-21T22:16:30.134Z,61.00
2023-03-21T22:18:56.863Z,61.80
2023-03-21T22:21:23.738Z,61.30
2023-03-21T22:23:50.697Z,61.50
2023-03-21T22:26:17.681Z,62.90
2023-03-21T22:28:45.210Z,61.10
2023-03-21T22:31:15.249Z,65.20
2023-03-21T22:33:43.092Z,60.10
2023-03-21T22:36:10.742Z,61.10
2023-03-21T22:38:37.779Z,59.00
2023-03-21T22:41:05.144Z,64.30
2023-03-21T22:46:02.744Z,60.60
2023-03-21T22:48:30.479Z,61.60
2023-03-21T22:50:58.008Z,66.50
2023-03-21T22:53:25.175Z,64.30
2023-03-21T22:55:51.829Z,63.70
2023-03-21T22:58:18.794Z,63.00
2023-03-21T23:00:45.403Z,60.80
2023-03-21T23:03:13.922Z,62.90
2023-03-21T23:05:40.796Z,65.20
2023-03-21T23:08:07.681Z,58.80
2023-03-21T23:10:36.099Z,61.60
2023-03-21T23:13:03.845Z,62.20
2023-03-21T23:17:56.716Z,59.80
2023-03-21T23:20:23.521Z,58.90
2023-03-21T23:22:49.985Z,57.00
2023-03-21T23:25:20.186Z,61.50
2023-03-21T23:27:47.153Z,61.70
2023-03-21T23:30:14.051Z,57.40
2023-03-21T23:32:40.597Z,60.90
2023-03-21T23:35:07.550Z,57.90
2023-03-21T23:37:34.117Z,59.50
2023-03-21T23:40:00.657Z,57.80
2023-03-21T23:42:28.025Z,59.80
2023-03-21T23:44:54.788Z,59.50
2023-03-21T23:47:21.158Z,62.00
2023-03-21T23:49:49.297Z,58.60
2023-03-21T23:52:15.786Z,54.90
2023-03-21T23:54:42.279Z,54.80
2023-03-21T23:57:11.295Z,55.00
2023-03-21T23:59:37.714Z,51.10
